createdAt,value
2022-11-29T00:03:37.461Z,2.92
2022-11-29T00:07:41.891Z,2.89
2022-11-29T00:12:02.397Z,2.89
2022-11-29T00:16:06.940Z,2.85
2022-11-29T00:20:11.551Z,2.84
2022-11-29T00:24:15.900Z,2.85
2022-11-29T00:28:18.904Z,2.85
2022-11-29T00:32:21.892Z,2.84
2022-11-29T00:36:25.185Z,2.80
2022-11-29T00:40:29.564Z,2.80
2022-11-29T00:44:32.809Z,2.82
2022-11-29T00:48:36.646Z,2.83
2022-11-29T00:52:39.666Z,2.78
2022-11-29T00:56:44.292Z,2.78
2022-11-29T01:00:47.701Z,2.76
2022-11-29T01:04:50.721Z,2.73
2022-11-29T01:08:54.472Z,2.71
2022-11-29T01:12:59.052Z,2.72
2022-11-29T01:17:02.338Z,2.70
2022-11-29T01:21:08.419Z,2.68
2022-11-29T01:25:13.804Z,2.67
2022-11-29T01:29:18.146Z,2.67
2022-11-29T01:33:21.544Z,2.66
2022-11-29T01:37:24.505Z,2.62
2022-11-29T01:41:30.168Z,2.60
2022-11-29T01:45:39.309Z,2.60
2022-11-29T01:49:45.384Z,2.57
2022-11-29T01:53:48.794Z,2.54
2022-11-29T01:57:51.838Z,2.52
2022-11-29T02:02:04.043Z,2.52
2022-11-29T02:06:08.499Z,2.50
2022-11-29T02:10:12.405Z,2.46
2022-11-29T02:14:34.409Z,2.41
2022-11-29T02:18:51.739Z,2.36
2022-11-29T02:23:00.452Z,2.30
2022-11-29T02:27:28.386Z,2.28
2022-11-29T02:31:53.673Z,2.27
2022-11-29T02:36:32.010Z,2.24
2022-11-29T02:41:08.721Z,2.20
2022-11-29T02:45:21.455Z,2.16
2022-11-29T02:49:37.200Z,2.11
2022-11-29T02:53:49.340Z,2.06
2022-11-29T02:57:59.932Z,2.07
2022-11-29T03:02:11.619Z,2.05
2022-11-29T03:06:23.357Z,2.02
2022-11-29T03:10:36.125Z,2.02
2022-11-29T03:14:53.399Z,1.98
2022-11-29T03:19:05.864Z,1.95
2022-11-29T03:23:20.723Z,1.93
2022-11-29T03:27:32.088Z,1.92
2022-11-29T03:31:40.285Z,1.92
2022-11-29T03:35:51.625Z,1.97
2022-11-29T03:40:00.796Z,1.94
2022-11-29T03:44:12.172Z,1.95
2022-11-29T03:48:22.077Z,1.95
2022-11-29T03:52:29.645Z,1.99
2022-11-29T03:56:35.460Z,1.96
2022-11-29T04:00:57.009Z,1.98
2022-11-29T04:05:20.183Z,1.95
2022-11-29T04:09:36.539Z,1.95
2022-11-29T04:14:29.306Z,1.99
2022-11-29T04:19:05.122Z,1.97
2022-11-29T04:23:46.700Z,1.99
2022-11-29T04:28:18.198Z,1.99
2022-11-29T04:32:50.080Z,1.98
2022-11-29T04:37:15.759Z,1.95
2022-11-29T04:41:42.087Z,1.98
2022-11-29T04:46:06.579Z,1.99
2022-11-29T04:50:28.035Z,2.02
2022-11-29T04:54:37.574Z,2.03
2022-11-29T04:58:51.258Z,2.03
2022-11-29T05:02:59.967Z,2.08
2022-11-29T05:07:08.394Z,2.09
2022-11-29T05:11:26.331Z,2.10
2022-11-29T05:15:55.416Z,2.07
2022-11-29T05:20:12.352Z,2.10
2022-11-29T05:24:28.920Z,2.13
2022-11-29T05:28:39.104Z,2.13
2022-11-29T05:32:58.185Z,2.14
2022-11-29T05:37:07.395Z,2.15
2022-11-29T05:41:26.362Z,2.14
2022-11-29T05:45:35.989Z,2.13
2022-11-29T05:49:48.251Z,2.12
2022-11-29T05:54:03.112Z,2.17
2022-11-29T05:58:13.396Z,2.15
2022-11-29T06:02:34.014Z,2.14
2022-11-29T06:06:44.959Z,2.17
2022-11-29T06:11:00.654Z,2.18
2022-11-29T06:15:25.408Z,2.17
2022-11-29T06:19:55.136Z,2.17
2022-11-29T06:24:25.873Z,2.16
2022-11-29T06:28:51.116Z,2.18
2022-11-29T06:33:11.456Z,2.21
2022-11-29T06:37:19.230Z,2.29
2022-11-29T06:41:25.240Z,2.31
2022-11-29T06:45:29.023Z,2.31
2022-11-29T06:49:37.763Z,2.33
2022-11-29T06:53:51.316Z,2.38
2022-11-29T06:58:04.275Z,2.39
2022-11-29T07:02:29.979Z,2.41
2022-11-29T07:06:35.485Z,2.38
2022-11-29T07:10:40.896Z,2.44
2022-11-29T07:14:46.463Z,2.46
2022-11-29T07:19:01.361Z,2.47
2022-11-29T07:23:14.186Z,2.49
2022-11-29T07:27:21.242Z,2.51
2022-11-29T07:31:33.541Z,2.53
2022-11-29T07:35:46.618Z,2.55
2022-11-29T07:40:00.755Z,2.55
2022-11-29T07:44:12.704Z,2.62
2022-11-29T07:48:18.360Z,2.67
2022-11-29T07:52:21.459Z,2.69
2022-11-29T07:56:24.472Z,2.73
2022-11-29T08:00:27.669Z,2.74
2022-11-29T08:04:32.268Z,2.77
2022-11-29T08:08:39.242Z,2.76
2022-11-29T08:12:50.035Z,2.80
2022-11-29T08:16:53.072Z,2.83
2022-11-29T08:20:57.602Z,2.87
2022-11-29T08:25:01.403Z,2.92
2022-11-29T08:29:04.440Z,2.96
2022-11-29T08:33:07.770Z,2.96
2022-11-29T08:37:12.211Z,2.97
2022-11-29T08:41:16.913Z,2.98
2022-11-29T08:45:20.057Z,3.00
2022-11-29T08:49:23.115Z,3.02
2022-11-29T08:53:42.846Z,3.04
2022-11-29T08:57:45.817Z,3.01
2022-11-29T09:01:49.077Z,3.02
2022-11-29T09:05:52.540Z,3.07
2022-11-29T09:09:56.921Z,3.06
2022-11-29T09:14:01.385Z,3.05
2022-11-29T09:18:05.261Z,3.07
2022-11-29T09:22:08.372Z,3.07
2022-11-29T09:26:19.587Z,3.09
2022-11-29T09:30:23.879Z,3.06
2022-11-29T09:34:27.036Z,3.07
2022-11-29T09:38:30.788Z,3.15
2022-11-29T09:42:47.106Z,3.26
2022-11-29T09:46:58.913Z,3.35
2022-11-29T09:51:11.339Z,3.43
2022-11-29T09:55:35.329Z,3.44
2022-11-29T09:59:44.223Z,3.44
2022-11-29T10:03:51.880Z,3.47
2022-11-29T10:08:01.771Z,3.58
2022-11-29T10:12:14.033Z,3.57
2022-11-29T10:16:26.526Z,3.60
2022-11-29T10:20:35.385Z,3.64
2022-11-29T10:24:47.552Z,3.68
2022-11-29T10:28:50.631Z,3.79
2022-11-29T10:33:01.614Z,3.88
2022-11-29T10:37:05.477Z,3.88
2022-11-29T10:41:12.249Z,3.80
2022-11-29T10:45:21.891Z,3.78
2022-11-29T10:49:28.976Z,3.81
2022-11-29T10:53:36.061Z,3.82
2022-11-29T10:58:09.155Z,3.92
2022-11-29T11:02:19.797Z,4.02
2022-11-29T11:06:27.557Z,4.02
2022-11-29T11:10:31.267Z,3.97
2022-11-29T11:14:37.701Z,4.01
2022-11-29T11:18:40.815Z,4.02
2022-11-29T11:22:45.468Z,3.99
2022-11-29T11:26:48.688Z,3.98
2022-11-29T11:30:55.397Z,4.04
2022-11-29T11:35:00.751Z,4.07
2022-11-29T11:39:13.918Z,4.11
2022-11-29T11:43:21.907Z,4.15
2022-11-29T11:47:27.539Z,4.13
2022-11-29T11:51:30.720Z,4.16
2022-11-29T11:55:38.447Z,4.17
2022-11-29T11:59:41.533Z,4.14
2022-11-29T12:03:55.706Z,4.12
2022-11-29T12:08:09.807Z,4.15
2022-11-29T12:12:16.722Z,4.11
2022-11-29T12:16:27.564Z,4.09
2022-11-29T12:20:33.596Z,4.06
2022-11-29T12:24:40.316Z,4.09
2022-11-29T12:28:47.096Z,4.14
2022-11-29T12:33:04.696Z,4.17
2022-11-29T12:37:16.477Z,4.19
2022-11-29T12:41:33.008Z,4.24
2022-11-29T12:45:45.255Z,4.27
2022-11-29T12:50:01.507Z,4.29
2022-11-29T12:54:31.887Z,4.37
2022-11-29T12:58:46.447Z,4.37
2022-11-29T13:03:06.744Z,4.38
2022-11-29T13:07:20.559Z,4.40
2022-11-29T13:11:27.013Z,4.44
2022-11-29T13:15:39.178Z,4.44
2022-11-29T13:19:50.763Z,4.43
2022-11-29T13:24:08.304Z,4.44
2022-11-29T13:28:22.193Z,4.39
2022-11-29T13:32:36.297Z,4.41
2022-11-29T13:36:53.045Z,4.43
2022-11-29T13:41:00.816Z,4.39
2022-11-29T13:45:16.424Z,4.37
2022-11-29T13:49:32.175Z,4.30
2022-11-29T13:53:48.901Z,4.27
2022-11-29T13:58:15.547Z,4.28
2022-11-29T14:02:29.850Z,4.21
2022-11-29T14:06:34.484Z,4.15
2022-11-29T14:10:39.468Z,4.09
2022-11-29T14:14:52.678Z,4.03
2022-11-29T14:19:22.135Z,3.98
2022-11-29T14:23:34.557Z,3.91
2022-11-29T14:28:00.669Z,3.82
2022-11-29T14:32:04.831Z,3.73
2022-11-29T14:36:31.601Z,3.72
2022-11-29T14:40:44.223Z,3.68
2022-11-29T14:44:52.227Z,3.65
2022-11-29T14:49:01.502Z,3.55
2022-11-29T14:53:05.960Z,3.46
2022-11-29T14:57:48.365Z,3.42
2022-11-29T15:01:53.592Z,3.40
2022-11-29T15:06:00.731Z,3.38
2022-11-29T15:10:06.427Z,3.33
2022-11-29T15:14:19.638Z,3.27
2022-11-29T15:18:44.236Z,3.22
2022-11-29T15:22:52.515Z,3.14
2022-11-29T15:26:57.388Z,3.06
2022-11-29T15:31:05.075Z,3.01
2022-11-29T15:35:18.561Z,2.97
2022-11-29T15:39:27.816Z,2.92
2022-11-29T15:43:36.048Z,2.90
2022-11-29T15:47:39.192Z,2.92
2022-11-29T15:51:44.238Z,2.90
2022-11-29T15:55:49.989Z,2.86
2022-11-29T15:59:56.358Z,2.85
2022-11-29T16:03:59.824Z,2.79
2022-11-29T16:08:08.211Z,2.76
2022-11-29T16:12:14.712Z,2.74
2022-11-29T16:16:22.051Z,2.69
2022-11-29T16:20:27.239Z,2.65
2022-11-29T16:24:35.262Z,2.61
2022-11-29T16:28:43.664Z,2.57
2022-11-29T16:32:52.272Z,2.56
2022-11-29T16:37:06.650Z,2.49
2022-11-29T16:41:24.213Z,2.45
2022-11-29T16:45:35.477Z,2.41
2022-11-29T16:49:38.868Z,2.40
2022-11-29T16:53:43.407Z,2.33
2022-11-29T16:57:48.946Z,2.34
2022-11-29T17:01:52.717Z,2.33
2022-11-29T17:05:56.176Z,2.36
2022-11-29T17:10:00.417Z,2.34
2022-11-29T17:14:04.794Z,2.38
2022-11-29T17:18:07.781Z,2.41
2022-11-29T17:22:10.742Z,2.40
2022-11-29T17:26:15.483Z,2.41
2022-11-29T17:30:19.978Z,2.39
2022-11-29T17:34:23.096Z,2.37
2022-11-29T17:38:26.385Z,2.32
2022-11-29T17:42:29.575Z,2.29
2022-11-29T17:46:35.943Z,2.25
2022-11-29T17:50:39.585Z,2.24
2022-11-29T17:54:42.622Z,2.20
2022-11-29T17:58:46.016Z,2.18
2022-11-29T18:02:50.474Z,2.15
2022-11-29T18:06:53.476Z,2.13
2022-11-29T18:11:04.321Z,2.10
2022-11-29T18:15:08.071Z,2.11
2022-11-29T18:19:15.778Z,2.11
2022-11-29T18:23:18.721Z,2.11
2022-11-29T18:27:21.791Z,2.11
2022-11-29T18:31:28.248Z,2.09
2022-11-29T18:35:32.940Z,2.08
2022-11-29T18:39:35.975Z,2.04
2022-11-29T18:43:40.220Z,2.00
2022-11-29T18:47:44.465Z,1.91
2022-11-29T18:51:50.318Z,1.91
2022-11-29T18:56:01.022Z,1.90
2022-11-29T19:00:04.782Z,1.88
2022-11-29T19:04:09.619Z,1.87
2022-11-29T19:08:14.038Z,1.83
2022-11-29T19:12:17.029Z,1.79
2022-11-29T19:16:20.640Z,1.75
2022-11-29T19:20:23.792Z,1.74
2022-11-29T19:24:28.119Z,1.72
2022-11-29T19:28:31.411Z,1.68
2022-11-29T19:32:34.574Z,1.70
2022-11-29T19:36:42.852Z,1.67
2022-11-29T19:40:47.882Z,1.70
2022-11-29T19:49:13.947Z,1.73
2022-11-29T19:53:17.355Z,1.74
2022-11-29T19:57:21.681Z,1.73
2022-11-29T20:01:35.951Z,1.77
2022-11-29T20:05:42.603Z,1.80
2022-11-29T20:09:45.825Z,1.79
2022-11-29T20:13:55.277Z,1.75
2022-11-29T20:17:58.202Z,1.70
2022-11-29T20:22:01.783Z,1.66
2022-11-29T20:26:05.776Z,1.65
2022-11-29T20:30:11.604Z,1.63
2022-11-29T20:34:15.382Z,1.59
2022-11-29T20:38:32.048Z,1.57
2022-11-29T20:42:53.770Z,1.55
2022-11-29T20:46:59.344Z,1.57
2022-11-29T20:51:03.583Z,1.56
2022-11-29T20:55:07.349Z,1.54
2022-11-29T20:59:10.552Z,1.58
2022-11-29T21:03:16.086Z,1.58
2022-11-29T21:07:19.355Z,1.62
2022-11-29T21:11:22.960Z,1.64
2022-11-29T21:15:28.104Z,1.65
2022-11-29T21:19:33.336Z,1.65
2022-11-29T21:23:56.059Z,1.63
2022-11-29T21:28:01.462Z,1.63
2022-11-29T21:32:05.220Z,1.66
2022-11-29T21:36:10.675Z,1.64
2022-11-29T21:40:15.890Z,1.64
2022-11-29T21:44:18.872Z,1.65
2022-11-29T21:48:37.710Z,1.67
2022-11-29T21:52:42.145Z,1.70
2022-11-29T21:56:45.256Z,1.71
2022-11-29T22:00:48.316Z,1.75
2022-11-29T22:04:53.145Z,1.72
2022-11-29T22:08:59.886Z,1.68
2022-11-29T22:13:02.846Z,1.65
2022-11-29T22:17:05.866Z,1.60
2022-11-29T22:21:09.148Z,1.65
2022-11-29T22:25:13.568Z,1.65
2022-11-29T22:29:17.024Z,1.66
2022-11-29T22:33:19.984Z,1.65
2022-11-29T22:37:23.158Z,1.63
2022-11-29T22:41:27.551Z,1.60
2022-11-29T22:45:30.506Z,1.67
2022-11-29T22:49:34.115Z,1.75
2022-11-29T22:53:38.867Z,1.79
2022-11-29T22:57:43.304Z,1.79
2022-11-29T23:01:47.224Z,1.81
2022-11-29T23:05:50.499Z,1.79
2022-11-29T23:09:55.171Z,1.80
2022-11-29T23:13:59.709Z,1.82
2022-11-29T23:18:02.934Z,1.83
2022-11-29T23:22:05.983Z,1.85
2022-11-29T23:26:10.114Z,1.85
2022-11-29T23:30:16.737Z,1.85
2022-11-29T23:34:19.884Z,1.85
2022-11-29T23:38:22.872Z,1.80
2022-11-29T23:42:26.017Z,1.73
2022-11-29T23:46:30.332Z,1.70
2022-11-29T23:50:33.402Z,1.65
2022-11-29T23:54:36.371Z,1.57
2022-11-29T23:58:39.904Z,1.48
